sensor_id;sensor_type;location;lat;lon;timestamp;P1;durP1;ratioP1;P2;durP2;ratioP2
77123;SDS011;66079;47.646;19.130;2023-06-10T00:00:44;8.07;;;4.40;;
77123;SDS011;66079;47.646;19.130;2023-06-10T00:03:46;8.80;;;5.33;;
77123;SDS011;66079;47.646;19.130;2023-06-10T00:06:49;8.40;;;4.78;;
77123;SDS011;66079;47.646;19.130;2023-06-10T00:09:52;5.80;;;4.72;;
77123;SDS011;66079;47.646;19.130;2023-06-10T00:12:55;7.22;;;5.10;;
77123;SDS011;66079;47.646;19.130;2023-06-10T00:15:58;9.10;;;4.70;;
77123;SDS011;66079;47.646;19.130;2023-06-10T00:19:00;8.97;;;4.80;;
77123;SDS011;66079;47.646;19.130;2023-06-10T00:22:04;8.73;;;5.10;;
77123;SDS011;66079;47.646;19.130;2023-06-10T00:25:07;9.10;;;4.50;;
77123;SDS011;66079;47.646;19.130;2023-06-10T00:28:11;6.88;;;4.55;;
77123;SDS011;66079;47.646;19.130;2023-06-10T00:31:15;8.63;;;4.63;;
77123;SDS011;66079;47.646;19.130;2023-06-10T00:34:19;8.90;;;4.93;;
77123;SDS011;66079;47.646;19.130;2023-06-10T00:37:22;7.05;;;5.28;;
77123;SDS011;66079;47.646;19.130;2023-06-10T00:40:24;6.28;;;4.93;;
77123;SDS011;66079;47.646;19.130;2023-06-10T00:43:27;6.93;;;5.05;;
77123;SDS011;66079;47.646;19.130;2023-06-10T00:46:29;6.30;;;5.37;;
77123;SDS011;66079;47.646;19.130;2023-06-10T00:49:34;6.87;;;5.30;;
77123;SDS011;66079;47.646;19.130;2023-06-10T00:52:37;9.15;;;5.75;;
77123;SDS011;66079;47.646;19.130;2023-06-10T00:55:40;10.15;;;5.85;;
77123;SDS011;66079;47.646;19.130;2023-06-10T00:58:44;11.57;;;6.30;;
77123;SDS011;66079;47.646;19.130;2023-06-10T01:01:47;11.83;;;6.53;;
77123;SDS011;66079;47.646;19.130;2023-06-10T01:04:49;33.10;;;6.27;;
77123;SDS011;66079;47.646;19.130;2023-06-10T01:11:03;10.38;;;6.18;;
77123;SDS011;66079;47.646;19.130;2023-06-10T01:14:10;8.10;;;5.38;;
77123;SDS011;66079;47.646;19.130;2023-06-10T01:17:14;10.57;;;5.23;;
77123;SDS011;66079;47.646;19.130;2023-06-10T01:20:19;9.23;;;5.57;;
77123;SDS011;66079;47.646;19.130;2023-06-10T01:23:21;7.05;;;4.82;;
77123;SDS011;66079;47.646;19.130;2023-06-10T01:26:27;7.15;;;5.80;;
77123;SDS011;66079;47.646;19.130;2023-06-10T01:32:49;8.07;;;4.70;;
77123;SDS011;66079;47.646;19.130;2023-06-10T01:35:53;5.83;;;4.50;;
77123;SDS011;66079;47.646;19.130;2023-06-10T01:38:59;5.95;;;4.38;;
77123;SDS011;66079;47.646;19.130;2023-06-10T01:42:03;6.45;;;4.20;;
77123;SDS011;66079;47.646;19.130;2023-06-10T01:45:06;8.70;;;4.05;;
77123;SDS011;66079;47.646;19.130;2023-06-10T01:48:10;7.90;;;4.50;;
77123;SDS011;66079;47.646;19.130;2023-06-10T01:51:13;5.20;;;3.97;;
77123;SDS011;66079;47.646;19.130;2023-06-10T01:54:17;6.70;;;4.07;;
77123;SDS011;66079;47.646;19.130;2023-06-10T01:57:21;7.05;;;3.80;;
77123;SDS011;66079;47.646;19.130;2023-06-10T02:00:23;7.03;;;4.20;;
77123;SDS011;66079;47.646;19.130;2023-06-10T02:03:26;6.33;;;4.03;;
77123;SDS011;66079;47.646;19.130;2023-06-10T02:06:28;6.60;;;4.17;;
77123;SDS011;66079;47.646;19.130;2023-06-10T02:09:31;7.65;;;4.07;;
77123;SDS011;66079;47.646;19.130;2023-06-10T02:12:37;5.35;;;4.25;;
77123;SDS011;66079;47.646;19.130;2023-06-10T02:15:39;5.40;;;4.00;;
77123;SDS011;66079;47.646;19.130;2023-06-10T02:18:42;6.20;;;4.07;;
77123;SDS011;66079;47.646;19.130;2023-06-10T02:21:48;5.77;;;3.87;;
77123;SDS011;66079;47.646;19.130;2023-06-10T02:24:51;6.25;;;3.88;;
77123;SDS011;66079;47.646;19.130;2023-06-10T02:27:54;6.70;;;4.07;;
77123;SDS011;66079;47.646;19.130;2023-06-10T02:30:57;5.85;;;3.95;;
77123;SDS011;66079;47.646;19.130;2023-06-10T02:34:01;5.83;;;3.93;;
77123;SDS011;66079;47.646;19.130;2023-06-10T02:37:05;5.53;;;4.13;;
77123;SDS011;66079;47.646;19.130;2023-06-10T02:40:08;5.68;;;3.92;;
77123;SDS011;66079;47.646;19.130;2023-06-10T02:43:13;5.93;;;4.00;;
77123;SDS011;66079;47.646;19.130;2023-06-10T02:46:16;5.72;;;4.20;;
77123;SDS011;66079;47.646;19.130;2023-06-10T02:49:19;8.43;;;4.10;;
77123;SDS011;66079;47.646;19.130;2023-06-10T02:52:22;10.50;;;4.53;;
77123;SDS011;66079;47.646;19.130;2023-06-10T02:55:26;6.15;;;4.00;;
77123;SDS011;66079;47.646;19.130;2023-06-10T02:58:34;6.95;;;3.88;;
77123;SDS011;66079;47.646;19.130;2023-06-10T03:01:38;3.90;;;3.55;;
77123;SDS011;66079;47.646;19.130;2023-06-10T03:04:44;5.20;;;3.70;;
77123;SDS011;66079;47.646;19.130;2023-06-10T03:07:51;7.33;;;3.40;;
77123;SDS011;66079;47.646;19.130;2023-06-10T03:10:54;7.25;;;3.65;;
77123;SDS011;66079;47.646;19.130;2023-06-10T03:13:57;4.07;;;3.67;;
77123;SDS011;66079;47.646;19.130;2023-06-10T03:17:02;5.82;;;3.58;;
77123;SDS011;66079;47.646;19.130;2023-06-10T03:20:07;7.33;;;3.90;;
77123;SDS011;66079;47.646;19.130;2023-06-10T03:23:14;5.87;;;3.90;;
77123;SDS011;66079;47.646;19.130;2023-06-10T03:26:18;5.63;;;3.55;;
77123;SDS011;66079;47.646;19.130;2023-06-10T03:29:25;6.28;;;3.63;;
77123;SDS011;66079;47.646;19.130;2023-06-10T03:32:29;5.00;;;4.00;;
77123;SDS011;66079;47.646;19.130;2023-06-10T03:35:32;6.63;;;4.00;;
77123;SDS011;66079;47.646;19.130;2023-06-10T03:38:35;5.23;;;3.80;;
77123;SDS011;66079;47.646;19.130;2023-06-10T03:41:40;4.93;;;4.05;;
77123;SDS011;66079;47.646;19.130;2023-06-10T03:44:44;9.43;;;4.53;;
77123;SDS011;66079;47.646;19.130;2023-06-10T03:47:47;5.05;;;4.00;;
77123;SDS011;66079;47.646;19.130;2023-06-10T03:50:53;6.73;;;4.03;;
77123;SDS011;66079;47.646;19.130;2023-06-10T03:53:57;7.47;;;4.20;;
77123;SDS011;66079;47.646;19.130;2023-06-10T03:57:00;9.57;;;4.68;;
77123;SDS011;66079;47.646;19.130;2023-06-10T04:00:03;4.25;;;3.42;;
77123;SDS011;66079;47.646;19.130;2023-06-10T04:03:15;4.20;;;3.45;;
77123;SDS011;66079;47.646;19.130;2023-06-10T04:06:22;5.53;;;3.87;;
77123;SDS011;66079;47.646;19.130;2023-06-10T04:09:24;7.80;;;3.60;;
77123;SDS011;66079;47.646;19.130;2023-06-10T04:12:27;5.13;;;3.63;;
77123;SDS011;66079;47.646;19.130;2023-06-10T04:15:30;4.97;;;3.40;;
77123;SDS011;66079;47.646;19.130;2023-06-10T04:18:40;4.28;;;3.50;;
77123;SDS011;66079;47.646;19.130;2023-06-10T04:21:45;3.97;;;3.53;;
77123;SDS011;66079;47.646;19.130;2023-06-10T04:24:48;4.13;;;3.30;;
77123;SDS011;66079;47.646;19.130;2023-06-10T04:27:52;5.90;;;3.10;;
77123;SDS011;66079;47.646;19.130;2023-06-10T04:30:55;8.50;;;3.13;;
77123;SDS011;66079;47.646;19.130;2023-06-10T04:33:58;5.68;;;3.30;;
77123;SDS011;66079;47.646;19.130;2023-06-10T04:37:00;8.43;;;3.50;;
77123;SDS011;66079;47.646;19.130;2023-06-10T04:40:04;5.60;;;3.47;;
77123;SDS011;66079;47.646;19.130;2023-06-10T04:43:08;6.68;;;3.20;;
77123;SDS011;66079;47.646;19.130;2023-06-10T04:46:11;4.50;;;3.20;;
77123;SDS011;66079;47.646;19.130;2023-06-10T04:49:16;4.95;;;3.33;;
77123;SDS011;66079;47.646;19.130;2023-06-10T04:52:18;5.87;;;3.13;;
77123;SDS011;66079;47.646;19.130;2023-06-10T04:55:22;4.23;;;3.57;;
77123;SDS011;66079;47.646;19.130;2023-06-10T04:58:25;5.30;;;3.45;;
77123;SDS011;66079;47.646;19.130;2023-06-10T05:01:27;4.75;;;3.20;;
77123;SDS011;66079;47.646;19.130;2023-06-10T05:04:30;4.88;;;3.60;;
77123;SDS011;66079;47.646;19.130;2023-06-10T05:07:33;6.27;;;3.20;;
77123;SDS011;66079;47.646;19.130;2023-06-10T05:10:35;4.73;;;3.60;;
77123;SDS011;66079;47.646;19.130;2023-06-10T05:13:38;4.85;;;3.45;;
77123;SDS011;66079;47.646;19.130;2023-06-10T05:16:43;5.13;;;3.38;;
77123;SDS011;66079;47.646;19.130;2023-06-10T05:19:45;7.07;;;3.50;;
77123;SDS011;66079;47.646;19.130;2023-06-10T05:22:49;6.17;;;3.43;;
77123;SDS011;66079;47.646;19.130;2023-06-10T05:25:51;5.50;;;3.80;;
77123;SDS011;66079;47.646;19.130;2023-06-10T05:28:54;6.60;;;4.07;;
77123;SDS011;66079;47.646;19.130;2023-06-10T05:31:56;4.70;;;3.55;;
77123;SDS011;66079;47.646;19.130;2023-06-10T05:35:03;7.28;;;3.90;;
77123;SDS011;66079;47.646;19.130;2023-06-10T05:38:07;4.63;;;3.70;;
77123;SDS011;66079;47.646;19.130;2023-06-10T05:41:09;5.80;;;3.70;;
77123;SDS011;66079;47.646;19.130;2023-06-10T05:44:12;5.28;;;3.75;;
77123;SDS011;66079;47.646;19.130;2023-06-10T05:47:15;6.22;;;4.00;;
77123;SDS011;66079;47.646;19.130;2023-06-10T05:50:18;4.82;;;3.67;;
77123;SDS011;66079;47.646;19.130;2023-06-10T05:53:20;7.20;;;4.13;;
77123;SDS011;66079;47.646;19.130;2023-06-10T05:56:23;4.70;;;3.73;;
77123;SDS011;66079;47.646;19.130;2023-06-10T05:59:26;5.68;;;3.47;;
77123;SDS011;66079;47.646;19.130;2023-06-10T06:02:28;4.15;;;3.45;;
77123;SDS011;66079;47.646;19.130;2023-06-10T06:05:31;4.80;;;3.50;;
77123;SDS011;66079;47.646;19.130;2023-06-10T06:08:37;4.37;;;3.13;;
77123;SDS011;66079;47.646;19.130;2023-06-10T06:11:40;4.80;;;3.20;;
77123;SDS011;66079;47.646;19.130;2023-06-10T06:14:43;5.00;;;3.53;;
77123;SDS011;66079;47.646;19.130;2023-06-10T06:17:47;4.70;;;3.25;;
77123;SDS011;66079;47.646;19.130;2023-06-10T06:20:49;4.57;;;3.42;;
77123;SDS011;66079;47.646;19.130;2023-06-10T06:23:52;7.07;;;3.40;;
77123;SDS011;66079;47.646;19.130;2023-06-10T06:26:55;4.03;;;3.43;;
77123;SDS011;66079;47.646;19.130;2023-06-10T06:29:57;3.70;;;3.22;;
77123;SDS011;66079;47.646;19.130;2023-06-10T06:33:00;4.53;;;3.78;;
77123;SDS011;66079;47.646;19.130;2023-06-10T06:36:03;5.10;;;3.97;;
77123;SDS011;66079;47.646;19.130;2023-06-10T06:39:06;6.87;;;4.07;;
77123;SDS011;66079;47.646;19.130;2023-06-10T06:42:09;10.23;;;4.10;;
77123;SDS011;66079;47.646;19.130;2023-06-10T06:45:35;5.03;;;3.95;;
77123;SDS011;66079;47.646;19.130;2023-06-10T06:48:37;4.22;;;3.75;;
77123;SDS011;66079;47.646;19.130;2023-06-10T06:51:40;5.13;;;4.28;;
77123;SDS011;66079;47.646;19.130;2023-06-10T06:54:42;6.43;;;4.57;;
77123;SDS011;66079;47.646;19.130;2023-06-10T06:57:45;5.57;;;4.80;;
77123;SDS011;66079;47.646;19.130;2023-06-10T07:00:48;6.57;;;4.80;;
77123;SDS011;66079;47.646;19.130;2023-06-10T07:03:50;6.82;;;4.53;;
77123;SDS011;66079;47.646;19.130;2023-06-10T07:06:53;5.63;;;4.32;;
77123;SDS011;66079;47.646;19.130;2023-06-10T07:09:55;6.50;;;4.37;;
77123;SDS011;66079;47.646;19.130;2023-06-10T07:12:58;5.00;;;4.20;;
77123;SDS011;66079;47.646;19.130;2023-06-10T07:16:00;5.55;;;4.97;;
77123;SDS011;66079;47.646;19.130;2023-06-10T07:19:03;9.27;;;5.55;;
77123;SDS011;66079;47.646;19.130;2023-06-10T07:22:07;7.43;;;5.80;;
77123;SDS011;66079;47.646;19.130;2023-06-10T07:25:10;7.73;;;6.47;;
77123;SDS011;66079;47.646;19.130;2023-06-10T07:28:13;8.77;;;6.43;;
77123;SDS011;66079;47.646;19.130;2023-06-10T07:31:16;8.48;;;6.18;;
77123;SDS011;66079;47.646;19.130;2023-06-10T07:34:19;7.35;;;6.53;;
77123;SDS011;66079;47.646;19.130;2023-06-10T07:37:21;7.80;;;6.75;;
77123;SDS011;66079;47.646;19.130;2023-06-10T07:40:24;8.33;;;7.07;;
77123;SDS011;66079;47.646;19.130;2023-06-10T07:43:27;7.27;;;6.57;;
77123;SDS011;66079;47.646;19.130;2023-06-10T07:46:29;7.65;;;5.97;;
77123;SDS011;66079;47.646;19.130;2023-06-10T07:49:32;6.97;;;6.28;;
77123;SDS011;66079;47.646;19.130;2023-06-10T07:52:34;6.95;;;5.85;;
77123;SDS011;66079;47.646;19.130;2023-06-10T07:55:37;6.33;;;5.47;;
77123;SDS011;66079;47.646;19.130;2023-06-10T07:58:39;6.80;;;5.30;;
77123;SDS011;66079;47.646;19.130;2023-06-10T08:01:42;6.20;;;5.60;;
77123;SDS011;66079;47.646;19.130;2023-06-10T08:04:45;6.18;;;5.00;;
77123;SDS011;66079;47.646;19.130;2023-06-10T08:07:47;6.85;;;5.28;;
77123;SDS011;66079;47.646;19.130;2023-06-10T08:10:50;5.63;;;5.03;;
77123;SDS011;66079;47.646;19.130;2023-06-10T08:13:52;6.03;;;5.43;;
77123;SDS011;66079;47.646;19.130;2023-06-10T08:16:55;5.90;;;5.05;;
77123;SDS011;66079;47.646;19.130;2023-06-10T08:19:57;6.82;;;5.03;;
77123;SDS011;66079;47.646;19.130;2023-06-10T08:23:00;5.90;;;5.30;;
77123;SDS011;66079;47.646;19.130;2023-06-10T08:26:02;6.07;;;5.37;;
77123;SDS011;66079;47.646;19.130;2023-06-10T08:29:05;5.70;;;5.10;;
77123;SDS011;66079;47.646;19.130;2023-06-10T08:32:08;5.78;;;5.03;;
77123;SDS011;66079;47.646;19.130;2023-06-10T08:35:10;5.57;;;5.07;;
77123;SDS011;66079;47.646;19.130;2023-06-10T08:38:13;6.07;;;4.72;;
77123;SDS011;66079;47.646;19.130;2023-06-10T08:41:17;7.83;;;5.10;;
77123;SDS011;66079;47.646;19.130;2023-06-10T08:44:22;6.47;;;4.80;;
77123;SDS011;66079;47.646;19.130;2023-06-10T08:47:30;5.32;;;4.60;;
77123;SDS011;66079;47.646;19.130;2023-06-10T08:50:38;5.57;;;4.45;;
77123;SDS011;66079;47.646;19.130;2023-06-10T08:53:50;5.22;;;4.65;;
77123;SDS011;66079;47.646;19.130;2023-06-10T08:57:01;5.30;;;4.80;;
77123;SDS011;66079;47.646;19.130;2023-06-10T09:00:08;5.80;;;4.93;;
77123;SDS011;66079;47.646;19.130;2023-06-10T09:03:11;5.88;;;4.80;;
77123;SDS011;66079;47.646;19.130;2023-06-10T09:06:16;7.85;;;4.70;;
77123;SDS011;66079;47.646;19.130;2023-06-10T09:09:20;5.15;;;4.65;;
77123;SDS011;66079;47.646;19.130;2023-06-10T09:12:24;6.27;;;4.33;;
77123;SDS011;66079;47.646;19.130;2023-06-10T09:15:27;4.87;;;4.03;;
77123;SDS011;66079;47.646;19.130;2023-06-10T09:18:30;4.65;;;4.20;;
77123;SDS011;66079;47.646;19.130;2023-06-10T09:21:32;4.53;;;4.13;;
77123;SDS011;66079;47.646;19.130;2023-06-10T09:24:35;4.55;;;4.15;;
77123;SDS011;66079;47.646;19.130;2023-06-10T09:31:01;4.87;;;4.37;;
77123;SDS011;66079;47.646;19.130;2023-06-10T09:34:09;5.32;;;4.80;;
77123;SDS011;66079;47.646;19.130;2023-06-10T09:37:13;5.40;;;4.60;;
77123;SDS011;66079;47.646;19.130;2023-06-10T09:40:22;5.75;;;4.25;;
77123;SDS011;66079;47.646;19.130;2023-06-10T09:46:57;4.77;;;4.37;;
77123;SDS011;66079;47.646;19.130;2023-06-10T09:50:01;4.95;;;4.43;;
77123;SDS011;66079;47.646;19.130;2023-06-10T09:53:06;5.00;;;4.50;;
77123;SDS011;66079;47.646;19.130;2023-06-10T09:56:08;5.13;;;4.60;;
77123;SDS011;66079;47.646;19.130;2023-06-10T09:59:12;3.90;;;3.60;;
77123;SDS011;66079;47.646;19.130;2023-06-10T10:02:15;3.37;;;3.07;;
77123;SDS011;66079;47.646;19.130;2023-06-10T10:05:18;3.70;;;3.35;;
77123;SDS011;66079;47.646;19.130;2023-06-10T10:08:22;3.80;;;3.45;;
77123;SDS011;66079;47.646;19.130;2023-06-10T10:11:25;3.92;;;3.63;;
77123;SDS011;66079;47.646;19.130;2023-06-10T10:14:29;5.93;;;3.70;;
77123;SDS011;66079;47.646;19.130;2023-06-10T10:17:49;4.10;;;3.80;;
77123;SDS011;66079;47.646;19.130;2023-06-10T10:21:04;4.35;;;3.88;;
77123;SDS011;66079;47.646;19.130;2023-06-10T10:24:18;3.92;;;3.50;;
77123;SDS011;66079;47.646;19.130;2023-06-10T10:27:27;4.55;;;3.67;;
77123;SDS011;66079;47.646;19.130;2023-06-10T10:30:33;4.90;;;3.30;;
77123;SDS011;66079;47.646;19.130;2023-06-10T10:33:53;6.03;;;3.60;;
77123;SDS011;66079;47.646;19.130;2023-06-10T10:37:00;3.40;;;3.10;;
77123;SDS011;66079;47.646;19.130;2023-06-10T10:40:03;3.50;;;3.20;;
77123;SDS011;66079;47.646;19.130;2023-06-10T10:43:06;4.35;;;3.17;;
77123;SDS011;66079;47.646;19.130;2023-06-10T10:46:13;3.90;;;3.60;;
77123;SDS011;66079;47.646;19.130;2023-06-10T10:49:18;3.60;;;3.10;;
77123;SDS011;66079;47.646;19.130;2023-06-10T10:52:22;3.20;;;2.40;;
77123;SDS011;66079;47.646;19.130;2023-06-10T10:55:25;2.75;;;1.90;;
77123;SDS011;66079;47.646;19.130;2023-06-10T10:58:28;2.78;;;2.20;;
77123;SDS011;66079;47.646;19.130;2023-06-10T11:01:41;2.40;;;2.20;;
77123;SDS011;66079;47.646;19.130;2023-06-10T11:04:48;3.43;;;2.63;;
77123;SDS011;66079;47.646;19.130;2023-06-10T11:07:52;2.72;;;2.53;;
77123;SDS011;66079;47.646;19.130;2023-06-10T11:10:58;2.92;;;2.70;;
77123;SDS011;66079;47.646;19.130;2023-06-10T11:17:03;2.20;;;2.10;;
77123;SDS011;66079;47.646;19.130;2023-06-10T11:20:41;2.80;;;2.60;;
77123;SDS011;66079;47.646;19.130;2023-06-10T11:23:52;2.60;;;2.40;;
77123;SDS011;66079;47.646;19.130;2023-06-10T11:26:55;2.92;;;2.72;;
77123;SDS011;66079;47.646;19.130;2023-06-10T11:30:17;2.85;;;2.65;;
77123;SDS011;66079;47.646;19.130;2023-06-10T11:33:24;2.80;;;2.60;;
77123;SDS011;66079;47.646;19.130;2023-06-10T11:36:27;2.40;;;2.20;;
77123;SDS011;66079;47.646;19.130;2023-06-10T11:39:30;2.70;;;2.50;;
77123;SDS011;66079;47.646;19.130;2023-06-10T11:42:33;2.63;;;2.42;;
77123;SDS011;66079;47.646;19.130;2023-06-10T11:45:42;3.05;;;2.75;;
77123;SDS011;66079;47.646;19.130;2023-06-10T11:48:54;4.17;;;2.80;;
77123;SDS011;66079;47.646;19.130;2023-06-10T11:51:58;3.13;;;2.40;;
77123;SDS011;66079;47.646;19.130;2023-06-10T11:55:00;2.85;;;2.15;;
77123;SDS011;66079;47.646;19.130;2023-06-10T11:58:03;2.53;;;2.20;;
77123;SDS011;66079;47.646;19.130;2023-06-10T12:01:05;2.78;;;2.58;;
77123;SDS011;66079;47.646;19.130;2023-06-10T12:04:17;4.00;;;2.43;;
77123;SDS011;66079;47.646;19.130;2023-06-10T12:07:24;5.03;;;2.40;;
77123;SDS011;66079;47.646;19.130;2023-06-10T12:10:26;5.95;;;2.30;;
77123;SDS011;66079;47.646;19.130;2023-06-10T12:13:29;3.17;;;2.40;;
77123;SDS011;66079;47.646;19.130;2023-06-10T12:16:31;2.78;;;2.20;;
77123;SDS011;66079;47.646;19.130;2023-06-10T12:19:38;2.13;;;1.93;;
77123;SDS011;66079;47.646;19.130;2023-06-10T12:22:43;2.20;;;2.00;;
77123;SDS011;66079;47.646;19.130;2023-06-10T12:25:51;2.40;;;2.20;;
77123;SDS011;66079;47.646;19.130;2023-06-10T12:28:55;2.10;;;1.90;;
77123;SDS011;66079;47.646;19.130;2023-06-10T12:31:58;3.00;;;2.10;;
77123;SDS011;66079;47.646;19.130;2023-06-10T12:35:05;2.33;;;2.13;;
77123;SDS011;66079;47.646;19.130;2023-06-10T12:38:09;3.20;;;2.37;;
77123;SDS011;66079;47.646;19.130;2023-06-10T12:41:14;3.40;;;2.60;;
77123;SDS011;66079;47.646;19.130;2023-06-10T12:44:16;2.78;;;2.30;;
77123;SDS011;66079;47.646;19.130;2023-06-10T12:47:19;4.50;;;2.80;;
77123;SDS011;66079;47.646;19.130;2023-06-10T12:50:21;2.70;;;2.50;;
77123;SDS011;66079;47.646;19.130;2023-06-10T12:53:24;2.50;;;2.30;;
77123;SDS011;66079;47.646;19.130;2023-06-10T12:56:28;2.88;;;2.60;;
77123;SDS011;66079;47.646;19.130;2023-06-10T12:59:31;4.25;;;2.67;;
77123;SDS011;66079;47.646;19.130;2023-06-10T13:02:34;2.55;;;2.35;;
77123;SDS011;66079;47.646;19.130;2023-06-10T13:05:37;2.63;;;2.43;;
77123;SDS011;66079;47.646;19.130;2023-06-10T13:08:41;2.43;;;2.23;;
77123;SDS011;66079;47.646;19.130;2023-06-10T13:11:43;2.92;;;1.90;;
77123;SDS011;66079;47.646;19.130;2023-06-10T13:14:47;3.70;;;2.28;;
77123;SDS011;66079;47.646;19.130;2023-06-10T13:17:49;9.05;;;2.85;;
77123;SDS011;66079;47.646;19.130;2023-06-10T13:20:53;6.13;;;2.60;;
77123;SDS011;66079;47.646;19.130;2023-06-10T13:23:56;6.33;;;3.20;;
77123;SDS011;66079;47.646;19.130;2023-06-10T13:26:58;5.65;;;3.38;;
77123;SDS011;66079;47.646;19.130;2023-06-10T13:30:01;4.68;;;2.90;;
77123;SDS011;66079;47.646;19.130;2023-06-10T13:33:04;4.18;;;3.08;;
77123;SDS011;66079;47.646;19.130;2023-06-10T13:36:06;3.73;;;2.63;;
77123;SDS011;66079;47.646;19.130;2023-06-10T13:39:09;5.40;;;3.00;;
77123;SDS011;66079;47.646;19.130;2023-06-10T13:42:11;2.97;;;2.50;;
77123;SDS011;66079;47.646;19.130;2023-06-10T13:45:14;3.15;;;2.85;;
77123;SDS011;66079;47.646;19.130;2023-06-10T13:48:17;2.63;;;2.42;;
77123;SDS011;66079;47.646;19.130;2023-06-10T13:51:21;4.17;;;2.70;;
77123;SDS011;66079;47.646;19.130;2023-06-10T13:54:23;3.23;;;2.83;;
77123;SDS011;66079;47.646;19.130;2023-06-10T13:57:26;3.80;;;2.60;;
77123;SDS011;66079;47.646;19.130;2023-06-10T14:00:28;2.83;;;2.47;;
77123;SDS011;66079;47.646;19.130;2023-06-10T14:03:31;4.10;;;2.30;;
77123;SDS011;66079;47.646;19.130;2023-06-10T14:06:34;4.27;;;2.60;;
77123;SDS011;66079;47.646;19.130;2023-06-10T14:09:37;2.93;;;2.43;;
77123;SDS011;66079;47.646;19.130;2023-06-10T14:12:39;2.70;;;2.50;;
77123;SDS011;66079;47.646;19.130;2023-06-10T14:15:42;2.75;;;2.50;;
77123;SDS011;66079;47.646;19.130;2023-06-10T14:18:45;4.28;;;2.28;;
77123;SDS011;66079;47.646;19.130;2023-06-10T14:21:48;2.33;;;2.13;;
77123;SDS011;66079;47.646;19.130;2023-06-10T14:24:51;3.40;;;2.10;;
77123;SDS011;66079;47.646;19.130;2023-06-10T14:27:54;3.22;;;2.30;;
77123;SDS011;66079;47.646;19.130;2023-06-10T14:30:56;3.10;;;2.50;;
77123;SDS011;66079;47.646;19.130;2023-06-10T14:33:59;2.28;;;2.08;;
77123;SDS011;66079;47.646;19.130;2023-06-10T14:37:02;2.17;;;1.97;;
77123;SDS011;66079;47.646;19.130;2023-06-10T14:40:10;3.13;;;2.10;;
77123;SDS011;66079;47.646;19.130;2023-06-10T14:43:12;3.08;;;2.20;;
77123;SDS011;66079;47.646;19.130;2023-06-10T14:46:15;3.33;;;1.85;;
77123;SDS011;66079;47.646;19.130;2023-06-10T14:49:18;2.85;;;2.10;;
77123;SDS011;66079;47.646;19.130;2023-06-10T14:52:20;2.63;;;2.30;;
77123;SDS011;66079;47.646;19.130;2023-06-10T14:55:23;2.40;;;2.20;;
77123;SDS011;66079;47.646;19.130;2023-06-10T14:58:25;4.43;;;2.47;;
77123;SDS011;66079;47.646;19.130;2023-06-10T15:01:28;3.03;;;2.30;;
77123;SDS011;66079;47.646;19.130;2023-06-10T15:04:30;6.10;;;2.50;;
77123;SDS011;66079;47.646;19.130;2023-06-10T15:07:33;5.57;;;2.80;;
77123;SDS011;66079;47.646;19.130;2023-06-10T15:10:36;4.77;;;2.40;;
77123;SDS011;66079;47.646;19.130;2023-06-10T15:13:39;3.88;;;2.78;;
77123;SDS011;66079;47.646;19.130;2023-06-10T15:16:41;3.15;;;2.75;;
77123;SDS011;66079;47.646;19.130;2023-06-10T15:19:44;3.75;;;2.80;;
77123;SDS011;66079;47.646;19.130;2023-06-10T15:22:46;2.60;;;2.40;;
77123;SDS011;66079;47.646;19.130;2023-06-10T15:25:49;2.90;;;2.60;;
77123;SDS011;66079;47.646;19.130;2023-06-10T15:28:51;2.78;;;2.50;;
77123;SDS011;66079;47.646;19.130;2023-06-10T15:31:54;3.15;;;2.60;;
77123;SDS011;66079;47.646;19.130;2023-06-10T15:34:57;2.88;;;2.42;;
77123;SDS011;66079;47.646;19.130;2023-06-10T15:37:59;2.67;;;2.47;;
77123;SDS011;66079;47.646;19.130;2023-06-10T15:41:02;3.00;;;2.70;;
77123;SDS011;66079;47.646;19.130;2023-06-10T15:44:05;2.42;;;2.22;;
77123;SDS011;66079;47.646;19.130;2023-06-10T15:47:07;2.72;;;2.45;;
77123;SDS011;66079;47.646;19.130;2023-06-10T15:50:10;2.90;;;2.28;;
77123;SDS011;66079;47.646;19.130;2023-06-10T15:53:12;3.07;;;2.30;;
77123;SDS011;66079;47.646;19.130;2023-06-10T15:56:15;3.20;;;2.40;;
77123;SDS011;66079;47.646;19.130;2023-06-10T15:59:18;2.97;;;2.40;;
77123;SDS011;66079;47.646;19.130;2023-06-10T16:02:20;3.13;;;2.45;;
77123;SDS011;66079;47.646;19.130;2023-06-10T16:05:23;3.15;;;2.35;;
77123;SDS011;66079;47.646;19.130;2023-06-10T16:08:25;3.10;;;2.70;;
77123;SDS011;66079;47.646;19.130;2023-06-10T16:11:28;3.00;;;2.70;;
77123;SDS011;66079;47.646;19.130;2023-06-10T16:14:30;2.72;;;2.53;;
77123;SDS011;66079;47.646;19.130;2023-06-10T16:17:33;3.97;;;2.60;;
77123;SDS011;66079;47.646;19.130;2023-06-10T16:20:35;3.58;;;2.90;;
77123;SDS011;66079;47.646;19.130;2023-06-10T16:23:38;3.67;;;2.83;;
77123;SDS011;66079;47.646;19.130;2023-06-10T16:26:41;3.60;;;3.00;;
77123;SDS011;66079;47.646;19.130;2023-06-10T16:29:44;4.75;;;3.00;;
77123;SDS011;66079;47.646;19.130;2023-06-10T16:32:46;5.78;;;3.10;;
77123;SDS011;66079;47.646;19.130;2023-06-10T16:35:49;4.57;;;3.33;;
77123;SDS011;66079;47.646;19.130;2023-06-10T16:38:52;5.07;;;3.30;;
77123;SDS011;66079;47.646;19.130;2023-06-10T16:41:56;3.30;;;3.00;;
77123;SDS011;66079;47.646;19.130;2023-06-10T16:44:59;3.63;;;3.03;;
77123;SDS011;66079;47.646;19.130;2023-06-10T16:48:01;4.13;;;3.10;;
77123;SDS011;66079;47.646;19.130;2023-06-10T16:51:04;7.15;;;3.25;;
77123;SDS011;66079;47.646;19.130;2023-06-10T16:54:07;3.60;;;2.80;;
77123;SDS011;66079;47.646;19.130;2023-06-10T16:57:10;3.73;;;2.83;;
77123;SDS011;66079;47.646;19.130;2023-06-10T17:00:13;4.30;;;3.05;;
77123;SDS011;66079;47.646;19.130;2023-06-10T17:03:15;3.92;;;3.30;;
77123;SDS011;66079;47.646;19.130;2023-06-10T17:06:18;8.25;;;5.40;;
77123;SDS011;66079;47.646;19.130;2023-06-10T17:09:21;10.47;;;6.67;;
77123;SDS011;66079;47.646;19.130;2023-06-10T17:12:23;7.47;;;6.07;;
77123;SDS011;66079;47.646;19.130;2023-06-10T17:15:26;6.90;;;4.80;;
77123;SDS011;66079;47.646;19.130;2023-06-10T17:18:29;5.47;;;3.65;;
77123;SDS011;66079;47.646;19.130;2023-06-10T17:21:32;4.50;;;3.50;;
77123;SDS011;66079;47.646;19.130;2023-06-10T17:24:35;5.53;;;3.30;;
77123;SDS011;66079;47.646;19.130;2023-06-10T17:27:37;4.97;;;3.60;;
77123;SDS011;66079;47.646;19.130;2023-06-10T17:30:40;4.57;;;3.20;;
77123;SDS011;66079;47.646;19.130;2023-06-10T17:33:43;5.13;;;3.47;;
77123;SDS011;66079;47.646;19.130;2023-06-10T17:36:45;5.80;;;3.38;;
77123;SDS011;66079;47.646;19.130;2023-06-10T17:39:48;3.93;;;3.40;;
77123;SDS011;66079;47.646;19.130;2023-06-10T17:42:51;3.70;;;3.40;;
77123;SDS011;66079;47.646;19.130;2023-06-10T17:45:54;4.53;;;3.33;;
77123;SDS011;66079;47.646;19.130;2023-06-10T17:48:58;5.40;;;3.15;;
77123;SDS011;66079;47.646;19.130;2023-06-10T17:52:01;3.75;;;3.00;;
77123;SDS011;66079;47.646;19.130;2023-06-10T17:55:04;3.87;;;3.03;;
77123;SDS011;66079;47.646;19.130;2023-06-10T17:58:06;5.50;;;2.93;;
77123;SDS011;66079;47.646;19.130;2023-06-10T18:01:09;3.45;;;3.15;;
77123;SDS011;66079;47.646;19.130;2023-06-10T18:04:11;4.10;;;3.30;;
77123;SDS011;66079;47.646;19.130;2023-06-10T18:07:14;4.45;;;3.50;;
77123;SDS011;66079;47.646;19.130;2023-06-10T18:10:17;3.43;;;3.10;;
77123;SDS011;66079;47.646;19.130;2023-06-10T18:13:19;4.30;;;3.00;;
77123;SDS011;66079;47.646;19.130;2023-06-10T18:16:22;3.25;;;2.95;;
77123;SDS011;66079;47.646;19.130;2023-06-10T18:19:25;3.88;;;3.45;;
77123;SDS011;66079;47.646;19.130;2023-06-10T18:22:27;5.55;;;3.38;;
77123;SDS011;66079;47.646;19.130;2023-06-10T18:25:30;3.87;;;3.37;;